Time;durP1;ratioP1;P1;durP2;ratioP2;P2;SDS_P1;SDS_P2;PMS_P1;PMS_P2;Temp;Humidity;BMP_temperature;BMP_pressure;BME280_temperature;BME280_humidity;BME280_pressure;Samples;Min_cycle;Max_cycle;Signal;HPM_P1;HPM_P2
2022/10/14 00:00:12;;;;;;;;;;;;;;;13.11;57.94;100297.38;4454078;32;19989;-80
2022/10/14 00:02:40;;;;;;;;;;;;;;;12.97;58.45;100289.41;4446314;32;20459;-80
2022/10/14 00:05:08;;;;;;;;;;;;;;;13.17;57.51;100291.37;4436638;32;20008;-83
2022/10/14 00:07:35;;;;;;;;;;;;;;;13.26;57.38;100291.53;4446523;32;20325;-80
2022/10/14 00:10:05;;;;;;;;;;;;;;;13.33;56.98;100288.16;4446855;32;20248;-80
2022/10/14 00:12:32;;;;;;;;;;;;;;;13.04;57.84;100291.22;4432286;32;20326;-82
2022/10/14 00:14:59;;;;;;;;;;;;;;;13.20;57.41;100286.22;4448052;32;20574;-81
2022/10/14 00:17:26;;;;;;;;;;;;;;;12.96;58.16;100285.06;4455242;32;19985;-81
2022/10/14 00:19:53;;;;;;;;;;;;;;;13.01;57.99;100290.31;4455014;32;20003;-81
2022/10/14 00:22:20;;;;;;;;;;;;;;;13.00;58.25;100284.25;4454693;32;19977;-82
2022/10/14 00:24:46;;;;;;;;;;;;;;;13.17;57.68;100281.84;4440517;32;20000;-84
2022/10/14 00:27:13;;;;;;;;;;;;;;;13.03;58.03;100279.09;4436939;32;20022;-82
2022/10/14 00:29:40;;;;;;;;;;;;;;;12.94;58.31;100281.56;4434847;32;19974;-82
2022/10/14 00:32:07;;;;;;;;;;;;;;;12.96;57.94;100287.66;4432467;32;20584;-80
2022/10/14 00:34:34;;;;;;;;;;;;;;;13.06;57.67;100277.41;4437361;32;19981;-85
2022/10/14 00:37:02;;;;;;;;;;;;;;;13.00;58.05;100279.06;4440166;32;20027;-81
2022/10/14 00:39:30;;;;;;;;;;;;;;;12.94;58.10;100278.97;4439634;32;19969;-81
2022/10/14 00:41:56;;;;;;;;;;;;;;;12.96;58.12;100272.09;4428899;32;20781;-81
2022/10/14 00:44:23;;;;;;;;;;;;;;;12.85;58.30;100273.66;4418660;32;19981;-82
2022/10/14 00:46:50;;;;;;;;;;;;;;;13.16;57.23;100274.06;4421218;32;20092;-81
2022/10/14 00:49:21;;;;;;;;;;;;;;;12.93;58.05;100276.38;4415371;32;19973;-80
2022/10/14 00:51:50;;;;;;;;;;;;;;;13.08;57.58;100271.37;4413292;32;19981;-80
2022/10/14 00:54:17;;;;;;;;;;;;;;;12.99;57.63;100271.25;4407962;32;19985;-81
2022/10/14 00:56:44;;;;;;;;;;;;;;;13.08;57.71;100271.37;4416193;32;19989;-83
2022/10/14 00:59:11;;;;;;;;;;;;;;;12.96;57.94;100272.09;4430600;32;19970;-84
2022/10/14 01:01:38;;;;;;;;;;;;;;;13.01;57.65;100272.13;4416561;32;20405;-82
2022/10/14 01:04:05;;;;;;;;;;;;;;;12.76;58.39;100268.31;4408776;32;20000;-81
2022/10/14 01:06:34;;;;;;;;;;;;;;;12.68;58.96;100275.16;4413742;32;19981;-80
2022/10/14 01:09:03;;;;;;;;;;;;;;;12.83;58.47;100264.06;4436870;32;19965;-81
2022/10/14 01:11:41;;;;;;;;;;;;;;;12.71;58.91;100268.25;4410760;32;19978;-81
2022/10/14 01:14:23;;;;;;;;;;;;;;;13.06;57.57;100267.00;4430958;32;20003;-81
2022/10/14 01:17:06;;;;;;;;;;;;;;;12.72;58.78;100271.72;4428200;32;20029;-82
2022/10/14 01:19:36;;;;;;;;;;;;;;;12.62;58.65;100264.66;4433806;32;20019;-87
2022/10/14 01:22:11;;;;;;;;;;;;;;;12.84;58.01;100264.13;4416933;32;20002;-81
2022/10/14 01:24:38;;;;;;;;;;;;;;;12.86;58.03;100267.63;4436802;32;20810;-80
2022/10/14 01:27:08;;;;;;;;;;;;;;;12.85;58.17;100263.25;4436344;32;20002;-81
2022/10/14 01:29:50;;;;;;;;;;;;;;;12.62;59.23;100264.66;4433980;32;20088;-82
2022/10/14 01:32:36;;;;;;;;;;;;;;;12.59;59.09;100267.22;4439466;32;20322;-81
2022/10/14 01:35:22;;;;;;;;;;;;;;;12.61;58.89;100252.53;4438094;32;20000;-82
2022/10/14 01:37:54;;;;;;;;;;;;;;;12.80;58.38;100252.81;4424289;32;19986;-81
2022/10/14 01:40:25;;;;;;;;;;;;;;;12.88;58.14;100246.84;4415960;32;19981;-82
2022/10/14 01:42:54;;;;;;;;;;;;;;;12.51;59.60;100252.41;4417497;32;19989;-81
2022/10/14 01:45:21;;;;;;;;;;;;;;;12.67;58.94;100247.44;4438243;32;19981;-81
2022/10/14 01:47:48;;;;;;;;;;;;;;;12.86;58.11;100244.25;4436704;32;20000;-81
2022/10/14 01:50:16;;;;;;;;;;;;;;;12.74;58.42;100241.47;4418186;32;19973;-82
2022/10/14 01:52:44;;;;;;;;;;;;;;;12.78;58.17;100241.50;4422748;32;20538;-83
2022/10/14 01:55:13;;;;;;;;;;;;;;;12.46;59.29;100243.66;4431569;32;19989;-80
2022/10/14 01:57:40;;;;;;;;;;;;;;;12.77;58.18;100244.09;4428952;32;19992;-81
2022/10/14 02:00:07;;;;;;;;;;;;;;;12.74;58.26;100244.06;4429366;32;20407;-81
2022/10/14 02:02:39;;;;;;;;;;;;;;;12.33;59.70;100246.94;4429436;32;19981;-84
2022/10/14 02:05:26;;;;;;;;;;;;;;;12.75;58.26;100238.88;4430930;32;19997;-81
2022/10/14 02:07:56;;;;;;;;;;;;;;;12.55;58.84;100238.59;4432123;32;19985;-80
2022/10/14 02:10:26;;;;;;;;;;;;;;;12.82;57.95;100245.03;4428596;32;19969;-80
2022/10/14 02:13:13;;;;;;;;;;;;;;;12.49;58.85;100254.09;4428636;32;20346;-81
2022/10/14 02:15:58;;;;;;;;;;;;;;;12.43;59.17;100248.81;4407111;32;20041;-80
2022/10/14 02:18:40;;;;;;;;;;;;;;;12.69;58.22;100241.38;4421702;32;19993;-80
2022/10/14 02:21:15;;;;;;;;;;;;;;;12.62;58.48;100249.94;4405543;32;19978;-81
2022/10/14 02:24:07;;;;;;;;;;;;;;;12.62;58.49;100243.87;4412080;32;20061;-81
2022/10/14 02:26:34;;;;;;;;;;;;;;;12.96;57.57;100233.09;4416426;32;20023;-81
2022/10/14 02:29:01;;;;;;;;;;;;;;;12.84;57.84;100237.28;4407498;32;20042;-81
2022/10/14 02:31:28;;;;;;;;;;;;;;;12.71;58.42;100237.09;4423013;32;19974;-81
2022/10/14 02:33:55;;;;;;;;;;;;;;;12.54;58.73;100231.69;4426724;32;20021;-82
2022/10/14 02:36:22;;;;;;;;;;;;;;;12.28;59.98;100238.19;4417107;32;19995;-81
2022/10/14 02:38:49;;;;;;;;;;;;;;;12.51;59.54;100231.62;4416658;32;19981;-82
2022/10/14 02:41:17;;;;;;;;;;;;;;;12.46;59.79;100240.19;4415385;32;19973;-81
2022/10/14 02:43:44;;;;;;;;;;;;;;;12.68;58.88;100238.78;4402855;32;20315;-82
2022/10/14 02:46:11;;;;;;;;;;;;;;;12.43;59.60;100243.63;4418932;32;20295;-81
2022/10/14 02:48:38;;;;;;;;;;;;;;;12.47;59.55;100235.00;4417320;32;19986;-81
2022/10/14 02:51:05;;;;;;;;;;;;;;;12.48;59.29;100234.19;4417935;32;20389;-81
2022/10/14 02:53:32;;;;;;;;;;;;;;;12.25;60.47;100232.94;4431644;32;19985;-83
2022/10/14 02:55:59;;;;;;;;;;;;;;;12.45;59.67;100241.94;4430075;32;20000;-81
2022/10/14 02:58:26;;;;;;;;;;;;;;;12.69;58.79;100231.00;4418746;32;20045;-81
2022/10/14 03:00:54;;;;;;;;;;;;;;;12.48;59.63;100236.78;4415401;32;19970;-80
2022/10/14 03:03:23;;;;;;;;;;;;;;;12.36;59.90;100226.22;4419634;32;20000;-81
2022/10/14 03:05:51;;;;;;;;;;;;;;;12.54;58.84;100226.47;4424122;32;20027;-81
2022/10/14 03:08:19;;;;;;;;;;;;;;;12.28;59.78;100230.41;4425875;32;20072;-82
2022/10/14 03:10:46;;;;;;;;;;;;;;;12.40;59.49;100233.19;4408972;32;20117;-81
2022/10/14 03:13:13;;;;;;;;;;;;;;;12.46;59.26;100230.69;4433085;32;19999;-81
2022/10/14 03:15:40;;;;;;;;;;;;;;;12.54;59.07;100236.87;4438524;32;20003;-81
2022/10/14 03:18:08;;;;;;;;;;;;;;;12.65;58.93;100228.34;4436490;32;20004;-81
2022/10/14 03:20:36;;;;;;;;;;;;;;;12.50;59.63;100229.88;4445473;32;19981;-83
2022/10/14 03:23:03;;;;;;;;;;;;;;;12.73;58.99;100231.91;4441163;32;20057;-81
2022/10/14 03:25:32;;;;;;;;;;;;;;;12.78;59.23;100230.25;4440276;32;20044;-81
2022/10/14 03:28:00;;;;;;;;;;;;;;;12.67;60.12;100222.34;4429880;32;20492;-80
2022/10/14 03:30:30;;;;;;;;;;;;;;;12.69;60.34;100224.94;4423720;32;19978;-80
2022/10/14 03:32:57;;;;;;;;;;;;;;;12.77;60.28;100223.31;4425499;32;19992;-81
2022/10/14 03:35:25;;;;;;;;;;;;;;;12.69;60.66;100217.16;4416717;32;19986;-81
2022/10/14 03:37:53;;;;;;;;;;;;;;;12.67;61.31;100216.28;4415042;32;19982;-82
2022/10/14 03:40:23;;;;;;;;;;;;;;;12.77;61.25;100218.12;4417828;32;19974;-84
2022/10/14 03:42:50;;;;;;;;;;;;;;;12.84;60.98;100219.94;4423343;32;20800;-81
2022/10/14 03:45:19;;;;;;;;;;;;;;;12.83;61.41;100218.22;4420155;32;20027;-82
2022/10/14 03:47:46;;;;;;;;;;;;;;;12.78;61.82;100217.28;4421781;32;20942;-84
2022/10/14 03:50:13;;;;;;;;;;;;;;;12.82;61.93;100221.62;4423214;32;20045;-81
2022/10/14 03:52:41;;;;;;;;;;;;;;;13.03;60.73;100219.31;4417672;32;20025;-80
2022/10/14 03:55:14;;;;;;;;;;;;;;;13.13;60.31;100222.03;4439495;32;20684;-82
2022/10/14 03:57:41;;;;;;;;;;;;;;;13.07;60.70;100217.63;4432179;32;19989;-82
2022/10/14 04:00:09;;;;;;;;;;;;;;;13.18;60.12;100209.97;4435287;32;19978;-81
2022/10/14 04:02:39;;;;;;;;;;;;;;;13.13;60.15;100206.44;4432317;32;19985;-81
2022/10/14 04:05:08;;;;;;;;;;;;;;;13.12;60.11;100204.72;4432677;32;19993;-81
2022/10/14 04:07:35;;;;;;;;;;;;;;;13.10;59.75;100204.66;4432220;32;20009;-81
2022/10/14 04:10:02;;;;;;;;;;;;;;;13.14;59.54;100203.84;4432883;32;19976;-81
2022/10/14 04:12:30;;;;;;;;;;;;;;;13.07;59.53;100206.37;4446158;32;20385;-81
2022/10/14 04:14:57;;;;;;;;;;;;;;;13.10;59.25;100201.22;4432478;32;19977;-81
2022/10/14 04:17:24;;;;;;;;;;;;;;;13.16;58.90;100203.88;4441759;32;20079;-80
2022/10/14 04:19:51;;;;;;;;;;;;;;;12.95;59.48;100202.75;4439701;32;20072;-82
2022/10/14 04:22:19;;;;;;;;;;;;;;;13.11;58.85;100197.75;4417851;32;19985;-80
2022/10/14 04:24:47;;;;;;;;;;;;;;;12.81;59.51;100201.72;4425600;32;20080;-83
2022/10/14 04:27:14;;;;;;;;;;;;;;;13.15;58.41;100200.41;4441104;32;20000;-83
2022/10/14 04:29:41;;;;;;;;;;;;;;;12.99;59.01;100203.69;4431291;32;20022;-80
2022/10/14 04:32:09;;;;;;;;;;;;;;;13.11;58.34;100187.34;4430992;32;20421;-81
2022/10/14 04:34:36;;;;;;;;;;;;;;;12.99;58.68;100194.16;4430789;32;20322;-79
2022/10/14 04:37:03;;;;;;;;;;;;;;;12.90;58.82;100196.66;4432903;32;20004;-79
2022/10/14 04:39:33;;;;;;;;;;;;;;;12.92;58.81;100197.56;4437523;32;19970;-80
2022/10/14 04:42:01;;;;;;;;;;;;;;;12.89;58.72;100200.09;4436282;32;20417;-81
2022/10/14 04:44:27;;;;;;;;;;;;;;;13.01;58.18;100197.63;4429411;32;20492;-82
2022/10/14 04:46:54;;;;;;;;;;;;;;;12.83;58.50;100196.53;4417441;32;19999;-82
2022/10/14 04:49:22;;;;;;;;;;;;;;;12.91;58.26;100200.97;4431365;32;19977;-83
2022/10/14 04:51:49;;;;;;;;;;;;;;;12.97;58.02;100201.06;4434654;32;19999;-83
2022/10/14 04:54:16;;;;;;;;;;;;;;;12.75;58.68;100201.62;4440075;32;20044;-82
2022/10/14 04:56:44;;;;;;;;;;;;;;;12.74;58.63;100199.91;4446164;32;20255;-88
2022/10/14 04:59:12;;;;;;;;;;;;;;;12.71;58.56;100199.87;4441471;32;19974;-88
2022/10/14 05:01:41;;;;;;;;;;;;;;;12.83;57.98;100202.63;4422444;32;20032;-90
2022/10/14 05:04:08;;;;;;;;;;;;;;;12.79;58.23;100211.22;4432952;32;19988;-92
2022/10/14 05:06:36;;;;;;;;;;;;;;;12.86;58.19;100202.66;4423477;32;20624;-93
2022/10/14 05:09:04;;;;;;;;;;;;;;;12.63;58.81;100198.88;4420632;32;20015;-85
2022/10/14 05:11:32;;;;;;;;;;;;;;;12.71;58.62;100202.47;4430532;32;20036;-85
2022/10/14 05:13:59;;;;;;;;;;;;;;;12.50;59.59;100198.69;4423485;32;20339;-82
2022/10/14 05:16:27;;;;;;;;;;;;;;;12.61;59.22;100198.00;4429040;32;20004;-85
2022/10/14 05:18:54;;;;;;;;;;;;;;;12.73;58.85;100195.53;4418958;32;19982;-86
2022/10/14 05:21:21;;;;;;;;;;;;;;;12.74;58.69;100197.31;4440490;32;20005;-82
2022/10/14 05:23:49;;;;;;;;;;;;;;;12.69;59.09;100198.97;4422721;32;20042;-87
2022/10/14 05:26:17;;;;;;;;;;;;;;;12.69;58.86;100204.16;4442486;32;19989;-87
2022/10/14 05:28:43;;;;;;;;;;;;;;;12.70;58.74;100206.78;4432674;32;20697;-87
2022/10/14 05:31:10;;;;;;;;;;;;;;;12.66;58.90;100209.31;4434871;32;19989;-86
2022/10/14 05:33:38;;;;;;;;;;;;;;;12.49;59.68;100209.09;4418611;32;20045;-85
2022/10/14 05:36:05;;;;;;;;;;;;;;;12.65;59.36;100202.38;4432386;32;20104;-84
2022/10/14 05:38:33;;;;;;;;;;;;;;;12.66;59.43;100209.31;4432852;32;19977;-83
2022/10/14 05:41:01;;;;;;;;;;;;;;;12.67;59.48;100217.13;4420392;32;20048;-83
2022/10/14 05:43:32;;;;;;;;;;;;;;;12.65;59.85;100208.44;4422263;32;20295;-88
2022/10/14 05:46:00;;;;;;;;;;;;;;;12.90;59.34;100213.97;4432821;32;20412;-81
2022/10/14 05:48:27;;;;;;;;;;;;;;;13.14;58.92;100219.44;4416487;32;19989;-94
2022/10/14 05:51:00;;;;;;;;;;;;;;;12.94;60.00;100221.81;4416865;32;19982;-81
2022/10/14 05:53:28;;;;;;;;;;;;;;;13.08;59.74;100218.50;4417464;32;20431;-82
2022/10/14 05:56:02;;;;;;;;;;;;;;;12.97;59.91;100221.84;4431511;32;20031;-86
2022/10/14 05:58:29;;;;;;;;;;;;;;;13.10;60.12;100224.59;4431890;32;20319;-90
2022/10/14 06:01:00;;;;;;;;;;;;;;;13.26;59.92;100218.75;4418437;32;19981;-87
2022/10/14 06:03:27;;;;;;;;;;;;;;;13.12;60.73;100233.28;4441513;32;19998;-86
2022/10/14 06:05:55;;;;;;;;;;;;;;;13.16;61.09;100232.47;4418291;32;19985;-84
2022/10/14 06:08:22;;;;;;;;;;;;;;;13.04;61.85;100238.38;4418285;32;20456;-86
2022/10/14 06:10:49;;;;;;;;;;;;;;;13.14;61.55;100234.16;4435432;32;20030;-84
2022/10/14 06:13:16;;;;;;;;;;;;;;;13.40;60.86;100238.00;4440903;32;20679;-82
2022/10/14 06:15:43;;;;;;;;;;;;;;;13.31;61.39;100237.88;4445597;32;19977;-86
2022/10/14 06:18:10;;;;;;;;;;;;;;;13.45;61.06;100240.63;4418147;32;19992;-86
2022/10/14 06:20:37;;;;;;;;;;;;;;;13.34;62.02;100242.25;4443130;32;19993;-89
2022/10/14 06:23:04;;;;;;;;;;;;;;;13.30;62.77;100241.31;4438920;32;19993;-88
2022/10/14 06:25:31;;;;;;;;;;;;;;;13.65;61.72;100243.44;4420216;32;20000;-89
2022/10/14 06:28:02;;;;;;;;;;;;;;;13.77;61.39;100243.56;4431723;32;19977;-87
2022/10/14 06:30:28;;;;;;;;;;;;;;;13.85;61.43;100241.91;4432977;32;19985;-88
2022/10/14 06:32:56;;;;;;;;;;;;;;;13.62;62.82;100253.81;4433649;32;20467;-89
2022/10/14 06:35:22;;;;;;;;;;;;;;;13.69;62.78;100246.09;4430890;32;19977;-89
2022/10/14 06:37:49;;;;;;;;;;;;;;;13.76;62.65;100247.03;4429205;32;20025;-88
2022/10/14 06:40:16;;;;;;;;;;;;;;;14.03;62.05;100245.53;4444617;32;20001;-90
2022/10/14 06:42:43;;;;;;;;;;;;;;;14.14;61.93;100249.09;4445757;32;19977;-86
2022/10/14 06:45:10;;;;;;;;;;;;;;;14.31;61.72;100247.47;4421147;32;19996;-89
2022/10/14 06:47:37;;;;;;;;;;;;;;;14.41;61.49;100249.28;4445652;32;19973;-88
2022/10/14 06:50:04;;;;;;;;;;;;;;;14.65;60.82;100245.16;4445699;32;19981;-90
2022/10/14 06:52:31;;;;;;;;;;;;;;;14.63;61.18;100254.69;4444300;32;19977;-86
2022/10/14 06:54:58;;;;;;;;;;;;;;;14.75;60.46;100254.75;4446213;32;20036;-84
2022/10/14 06:57:24;;;;;;;;;;;;;;;14.77;60.62;100257.37;4433156;32;19989;-88
2022/10/14 06:59:51;;;;;;;;;;;;;;;14.92;60.56;100257.44;4441249;32;20023;-85
2022/10/14 07:02:18;;;;;;;;;;;;;;;15.29;59.91;100253.28;4445607;32;19985;-83
2022/10/14 07:04:45;;;;;;;;;;;;;;;15.55;59.78;100250.72;4423928;32;19990;-84
2022/10/14 07:07:15;;;;;;;;;;;;;;;15.87;59.38;100243.87;4430593;32;20004;-87
2022/10/14 07:09:42;;;;;;;;;;;;;;;16.16;58.81;100247.34;4430216;32;19986;-86
2022/10/14 07:12:08;;;;;;;;;;;;;;;16.38;57.87;100252.56;4430463;32;19990;-85
2022/10/14 07:14:35;;;;;;;;;;;;;;;16.65;56.99;100247.28;4433716;32;19985;-88
2022/10/14 07:17:07;;;;;;;;;;;;;;;16.94;56.60;100246.38;4439864;32;19998;-84
2022/10/14 07:19:33;;;;;;;;;;;;;;;17.16;56.09;100248.03;4442200;32;19980;-91
2022/10/14 07:22:00;;;;;;;;;;;;;;;17.37;55.88;100243.59;4429994;32;19981;-89
2022/10/14 07:24:27;;;;;;;;;;;;;;;17.53;55.17;100242.62;4434621;32;19997;-87
2022/10/14 07:26:54;;;;;;;;;;;;;;;17.83;54.53;100243.31;4443634;32;20022;-87
2022/10/14 07:29:21;;;;;;;;;;;;;;;18.11;54.00;100244.84;4445806;32;19981;-85
2022/10/14 07:31:48;;;;;;;;;;;;;;;18.28;54.42;100243.84;4430856;32;20385;-87
2022/10/14 07:34:15;;;;;;;;;;;;;;;18.39;53.84;100242.00;4444866;32;19985;-90
2022/10/14 07:36:42;;;;;;;;;;;;;;;18.65;53.59;100239.09;4447342;32;20703;-86
2022/10/14 07:39:09;;;;;;;;;;;;;;;18.90;53.13;100238.88;4447157;32;20027;-90
2022/10/14 07:41:35;;;;;;;;;;;;;;;19.05;52.90;100234.31;4446065;32;20377;-85
2022/10/14 07:44:04;;;;;;;;;;;;;;;19.28;52.50;100241.03;4444467;32;19993;-86
2022/10/14 07:46:32;;;;;;;;;;;;;;;19.52;52.08;100245.94;4431211;32;19973;-85
2022/10/14 07:49:15;;;;;;;;;;;;;;;19.73;51.09;100241.31;4439812;32;19996;-84
2022/10/14 07:51:43;;;;;;;;;;;;;;;19.74;51.43;100240.41;4406996;32;20000;-84
2022/10/14 07:54:17;;;;;;;;;;;;;;;19.71;51.10;100230.81;4393793;32;19977;-88
2022/10/14 07:56:44;;;;;;;;;;;;;;;19.83;51.29;100229.75;4404071;32;19973;-91
2022/10/14 07:59:12;;;;;;;;;;;;;;;19.74;50.08;100235.16;4410616;32;19989;-89
2022/10/14 08:01:38;;;;;;;;;;;;;;;19.84;49.22;100226.22;4428648;32;20436;-87
2022/10/14 08:04:05;;;;;;;;;;;;;;;19.39;50.39;100233.87;4409788;32;19978;-88
2022/10/14 08:06:32;;;;;;;;;;;;;;;19.66;49.85;100223.91;4422673;32;19985;-85
2022/10/14 08:08:59;;;;;;;;;;;;;;;19.84;50.33;100225.38;4429518;32;20317;-88
2022/10/14 08:11:26;;;;;;;;;;;;;;;19.91;50.46;100222.63;4453340;32;19999;-83
2022/10/14 08:13:53;;;;;;;;;;;;;;;20.14;49.55;100229.28;4446765;32;20777;-89
2022/10/14 08:16:22;;;;;;;;;;;;;;;20.09;48.89;100228.47;4433701;32;20416;-84
2022/10/14 08:18:49;;;;;;;;;;;;;;;20.28;49.19;100224.63;4437909;32;20259;-83
2022/10/14 08:21:17;;;;;;;;;;;;;;;20.37;47.96;100216.59;4443618;32;19985;-85
2022/10/14 08:23:44;;;;;;;;;;;;;;;20.59;47.88;100222.34;4423975;32;20003;-87
2022/10/14 08:26:18;;;;;;;;;;;;;;;20.61;47.36;100219.69;4457847;32;19973;-88
2022/10/14 08:28:45;;;;;;;;;;;;;;;20.87;47.59;100214.78;4427508;32;19997;-88
2022/10/14 08:31:13;;;;;;;;;;;;;;;20.85;47.48;100215.72;4420045;32;19994;-87
2022/10/14 08:33:39;;;;;;;;;;;;;;;20.79;48.57;100208.81;4448193;32;20028;-85
2022/10/14 08:36:06;;;;;;;;;;;;;;;20.98;47.13;100205.81;4455688;32;19973;-91
2022/10/14 08:38:34;;;;;;;;;;;;;;;21.30;47.80;100205.97;4433637;32;20319;-92
2022/10/14 08:41:07;;;;;;;;;;;;;;;21.34;47.90;100197.09;4427139;32;19996;-91
2022/10/14 08:43:52;;;;;;;;;;;;;;;21.40;47.97;100195.28;4431496;32;19996;-88
2022/10/14 08:46:22;;;;;;;;;;;;;;;21.76;46.58;100189.16;4433010;32;19985;-87
2022/10/14 08:48:49;;;;;;;;;;;;;;;21.40;47.60;100200.53;4439843;32;20031;-90
2022/10/14 08:51:16;;;;;;;;;;;;;;;21.48;46.19;100203.88;4423056;32;19992;-88
2022/10/14 08:53:45;;;;;;;;;;;;;;;21.51;46.08;100198.53;4434544;32;20008;-89
2022/10/14 08:56:13;;;;;;;;;;;;;;;21.92;45.48;100209.84;4437942;32;20030;-90
2022/10/14 08:58:44;;;;;;;;;;;;;;;21.56;45.44;100207.19;4427569;32;19977;-86
2022/10/14 09:01:20;;;;;;;;;;;;;;;21.35;45.72;100204.16;4450001;32;19985;-92
2022/10/14 09:03:47;;;;;;;;;;;;;;;21.68;46.82;100196.37;4446314;32;20460;-85
2022/10/14 09:06:16;;;;;;;;;;;;;;;21.78;45.71;100203.16;4433853;32;20684;-90
2022/10/14 09:08:45;;;;;;;;;;;;;;;21.51;47.11;100203.81;4437479;32;19957;-86
2022/10/14 09:11:17;;;;;;;;;;;;;;;21.72;45.16;100203.28;4438322;32;20027;-88
2022/10/14 09:13:45;;;;;;;;;;;;;;;21.45;47.25;100203.94;4450628;32;20942;-87
2022/10/14 09:16:16;;;;;;;;;;;;;;;21.88;45.35;100208.19;4418416;32;20031;-86
2022/10/14 09:18:52;;;;;;;;;;;;;;;22.12;44.64;100207.59;4425223;32;20347;-89
2022/10/14 09:21:23;;;;;;;;;;;;;;;22.23;44.54;100205.56;4430431;32;20023;-87
2022/10/14 09:24:15;;;;;;;;;;;;;;;21.98;44.44;100207.06;4416925;32;20319;-89
2022/10/14 09:26:46;;;;;;;;;;;;;;;22.10;44.82;100204.13;4425859;32;20020;-88
2022/10/14 09:29:24;;;;;;;;;;;;;;;22.14;45.68;100203.13;4413022;32;20059;-85
2022/10/14 09:31:52;;;;;;;;;;;;;;;21.73;45.41;100205.03;4402750;32;20004;-88
2022/10/14 09:34:20;;;;;;;;;;;;;;;21.70;46.41;100210.37;4428493;32;19994;-89
2022/10/14 09:36:46;;;;;;;;;;;;;;;21.97;45.74;100207.97;4430129;32;19993;-92
2022/10/14 09:39:13;;;;;;;;;;;;;;;22.02;47.05;100208.75;4430682;32;20004;-87
2022/10/14 09:41:40;;;;;;;;;;;;;;;22.09;44.41;100201.53;4430956;32;20004;-90
2022/10/14 09:44:24;;;;;;;;;;;;;;;22.27;45.57;100207.25;4432593;32;20331;-86
2022/10/14 09:46:52;;;;;;;;;;;;;;;22.24;45.84;100202.03;4432131;32;19974;-89
2022/10/14 09:49:22;;;;;;;;;;;;;;;22.48;44.87;100204.91;4431587;32;19995;-85
2022/10/14 09:51:48;;;;;;;;;;;;;;;22.85;44.18;100204.78;4427803;32;20000;-85
2022/10/14 09:54:23;;;;;;;;;;;;;;;22.60;45.53;100199.31;4415673;32;20029;-88
2022/10/14 09:56:56;;;;;;;;;;;;;;;22.55;45.59;100200.34;4415357;32;19974;-87
2022/10/14 09:59:23;;;;;;;;;;;;;;;22.81;44.28;100204.88;4422176;32;19994;-86
2022/10/14 10:01:52;;;;;;;;;;;;;;;22.85;42.97;100203.91;4427898;32;19986;-87
2022/10/14 10:04:28;;;;;;;;;;;;;;;22.90;44.24;100196.72;4402868;32;19985;-88
2022/10/14 10:06:54;;;;;;;;;;;;;;;22.63;43.95;100196.59;4422310;32;19978;-84
2022/10/14 10:09:22;;;;;;;;;;;;;;;23.00;44.09;100197.34;4429151;32;20001;-90
2022/10/14 10:11:48;;;;;;;;;;;;;;;22.72;45.30;100193.69;4425973;32;19989;-92
2022/10/14 10:14:16;;;;;;;;;;;;;;;23.05;44.14;100188.38;4418500;32;19993;-89
2022/10/14 10:16:43;;;;;;;;;;;;;;;22.95;43.82;100198.34;4417185;32;20008;-86
2022/10/14 10:19:36;;;;;;;;;;;;;;;22.88;44.53;100188.84;4413677;32;20717;-85
2022/10/14 10:22:25;;;;;;;;;;;;;;;23.07;44.58;100189.22;4422679;32;20012;-93
2022/10/14 10:25:02;;;;;;;;;;;;;;;23.05;43.14;100188.38;4419186;32;19945;-85
2022/10/14 10:27:35;;;;;;;;;;;;;;;23.18;43.77;100192.38;4430165;32;19978;-88
2022/10/14 10:30:11;;;;;;;;;;;;;;;22.95;43.76;100189.56;4430554;32;19977;-90
2022/10/14 10:32:45;;;;;;;;;;;;;;;22.55;44.48;100190.66;4417271;32;20263;-91
2022/10/14 10:35:12;;;;;;;;;;;;;;;22.25;45.46;100182.66;4425299;32;19990;-90
2022/10/14 10:37:45;;;;;;;;;;;;;;;22.47;45.93;100182.09;4422912;32;19996;-88
2022/10/14 10:40:15;;;;;;;;;;;;;;;22.64;43.77;100179.84;4419620;32;20036;-90
2022/10/14 10:43:01;;;;;;;;;;;;;;;22.85;44.43;100177.53;4417565;32;19996;-88
2022/10/14 10:45:32;;;;;;;;;;;;;;;23.18;42.79;100171.25;4125579;32;10011036;-88
2022/10/14 10:48:02;;;;;;;;;;;;;;;23.14;42.82;100174.91;4414430;32;20351;-89
2022/10/14 10:50:38;;;;;;;;;;;;;;;23.14;44.25;100169.63;4414555;32;19995;-88
2022/10/14 10:53:08;;;;;;;;;;;;;;;22.97;42.43;100177.16;4430252;32;20000;-89
2022/10/14 10:55:53;;;;;;;;;;;;;;;22.37;44.99;100172.72;4431920;32;19990;-86
2022/10/14 10:58:20;;;;;;;;;;;;;;;23.03;43.76;100171.72;4431336;32;19973;-91
2022/10/14 11:00:53;;;;;;;;;;;;;;;23.11;43.15;100164.44;4424683;32;19974;-90
2022/10/14 11:03:38;;;;;;;;;;;;;;;22.91;44.62;100164.12;4402623;32;20351;-87
2022/10/14 11:06:05;;;;;;;;;;;;;;;23.23;43.15;100159.66;4416050;32;20000;-93
2022/10/14 11:14:31;;;;;;;;;;;;;;;23.31;43.13;100149.75;4436806;32;19978;-86
2022/10/14 11:17:09;;;;;;;;;;;;;;;23.43;43.52;100146.72;4424381;32;20050;-89
2022/10/14 11:19:52;;;;;;;;;;;;;;;23.73;41.73;100151.94;4433294;32;20023;-92
2022/10/14 11:22:27;;;;;;;;;;;;;;;23.78;42.14;100139.44;4397496;32;20350;-90
2022/10/14 11:24:57;;;;;;;;;;;;;;;23.74;42.72;100135.16;4399568;32;20005;-93
2022/10/14 11:27:42;;;;;;;;;;;;;;;23.74;43.42;100133.41;4416319;32;20078;-89
2022/10/14 11:30:42;;;;;;;;;;;;;;;23.57;41.76;100131.25;4237132;32;19995;-93
2022/10/14 11:33:21;;;;;;;;;;;;;;;23.10;42.21;100138.94;4407882;32;20283;-95
2022/10/14 11:35:54;;;;;;;;;;;;;;;22.94;44.35;100129.72;4414165;32;19992;-94
2022/10/14 11:38:24;;;;;;;;;;;;;;;23.37;42.67;100126.62;4399166;32;20673;-91
2022/10/14 11:40:57;;;;;;;;;;;;;;;23.43;41.40;100129.09;4412952;32;20306;-92
2022/10/14 11:43:31;;;;;;;;;;;;;;;23.31;42.39;100123.31;4416046;32;19992;-90
2022/10/14 11:46:06;;;;;;;;;;;;;;;23.23;42.93;100120.06;4414619;32;19955;-91
2022/10/14 11:48:33;;;;;;;;;;;;;;;23.24;41.42;100116.53;4413685;32;20687;-93
2022/10/14 11:51:21;;;;;;;;;;;;;;;23.50;41.98;100113.03;4414502;32;19989;-94
2022/10/14 11:53:54;;;;;;;;;;;;;;;23.73;42.40;100115.78;4413932;32;20027;-91
2022/10/14 11:56:28;;;;;;;;;;;;;;;23.54;41.48;100109.38;4413306;32;20444;-94
2022/10/14 11:58:57;;;;;;;;;;;;;;;23.58;43.33;100118.91;4412021;32;19994;-92
2022/10/14 12:01:24;;;;;;;;;;;;;;;23.52;43.50;100106.78;4413936;32;19986;-93
2022/10/14 12:03:59;;;;;;;;;;;;;;;23.59;43.16;100113.59;4414909;32;20089;-88
2022/10/14 12:06:26;;;;;;;;;;;;;;;23.74;42.41;100116.66;4409285;32;20342;-89
2022/10/14 12:09:01;;;;;;;;;;;;;;;23.59;42.35;100110.94;4410834;32;20012;-93
2022/10/14 12:11:34;;;;;;;;;;;;;;;23.65;42.05;100104.59;4414285;32;19986;-88
2022/10/14 12:14:03;;;;;;;;;;;;;;;23.57;42.35;100104.84;4413328;32;19999;-88
2022/10/14 12:16:30;;;;;;;;;;;;;;;23.74;41.88;100106.09;4408514;32;19982;-88
2022/10/14 12:18:57;;;;;;;;;;;;;;;23.87;42.09;100107.41;4414871;32;20314;-87
2022/10/14 12:21:29;;;;;;;;;;;;;;;23.41;42.99;100099.19;4417943;32;19978;-88
2022/10/14 12:23:58;;;;;;;;;;;;;;;22.96;43.43;100090.97;4423473;32;20011;-88
2022/10/14 12:26:25;;;;;;;;;;;;;;;23.07;43.79;100096.78;4425866;32;20005;-87
2022/10/14 12:28:51;;;;;;;;;;;;;;;23.08;43.80;100090.59;4416992;32;20047;-89
2022/10/14 12:31:37;;;;;;;;;;;;;;;23.41;43.93;100096.56;4417606;32;20036;-88
2022/10/14 12:34:10;;;;;;;;;;;;;;;23.32;42.97;100088.91;4423986;32;19986;-86
2022/10/14 12:36:37;;;;;;;;;;;;;;;23.12;43.58;100086.94;4415446;32;19995;-88
2022/10/14 12:39:16;;;;;;;;;;;;;;;22.84;45.88;100081.59;4422196;32;20324;-85
2022/10/14 12:41:53;;;;;;;;;;;;;;;23.21;44.22;100081.34;4420776;32;20005;-83
2022/10/14 12:44:26;;;;;;;;;;;;;;;23.43;44.23;100075.38;4426584;32;20000;-83
2022/10/14 12:46:53;;;;;;;;;;;;;;;23.66;44.61;100067.53;4427407;32;19993;-85
2022/10/14 12:49:28;;;;;;;;;;;;;;;23.19;44.08;100077.03;4429535;32;19988;-85
2022/10/14 12:52:13;;;;;;;;;;;;;;;23.37;42.85;100075.59;4429393;32;19990;-83
2022/10/14 12:54:44;;;;;;;;;;;;;;;23.24;43.46;100074.25;4428337;32;20023;-87